Time;durP1;ratioP1;P1;durP2;ratioP2;P2;SDS_P1;SDS_P2;PMS_P1;PMS_P2;Temp;Humidity;BMP_temperature;BMP_pressure;BME280_temperature;BME280_humidity;BME280_pressure;Samples;Min_cycle;Max_cycle;Signal;HPM_P1;HPM_P2
2022/05/12 00:00:31;;;;;;;9.00;3.58;;;;;;;;;;5051453;28;20117;-38
2022/05/12 00:02:57;;;;;;;7.55;3.95;;;;;;;;;;5033014;28;20029;-39
2022/05/12 00:05:23;;;;;;;7.18;4.25;;;;;;;;;;5051047;28;20049;-39
2022/05/12 00:07:48;;;;;;;9.15;4.63;;;;;;;;;;5051139;28;20036;-38
2022/05/12 00:10:15;;;;;;;11.60;4.45;;;;;;;;;;5050998;28;20605;-38
2022/05/12 00:12:41;;;;;;;8.05;3.83;;;;;;;;;;5051159;28;20022;-38
2022/05/12 00:15:12;;;;;;;11.50;5.63;;;;;;;;;;5051115;28;20060;-38
2022/05/12 00:17:37;;;;;;;5.90;4.18;;;;;;;;;;5051110;28;20048;-38
2022/05/12 00:20:03;;;;;;;6.30;4.07;;;;;;;;;;5051356;28;20021;-38
2022/05/12 00:22:28;;;;;;;5.95;4.00;;;;;;;;;;5050805;28;20041;-38
2022/05/12 00:24:54;;;;;;;8.45;4.40;;;;;;;;;;5051021;28;20052;-38
2022/05/12 00:27:19;;;;;;;10.27;4.55;;;;;;;;;;5051188;28;20048;-38
2022/05/12 00:29:44;;;;;;;13.63;3.63;;;;;;;;;;5035616;28;20357;-38
2022/05/12 00:32:10;;;;;;;6.05;3.80;;;;;;;;;;5054849;28;20348;-38
2022/05/12 00:34:36;;;;;;;8.02;3.95;;;;;;;;;;5037008;28;20025;-38
2022/05/12 00:37:01;;;;;;;9.40;4.10;;;;;;;;;;5054847;28;20079;-38
2022/05/12 00:39:27;;;;;;;6.07;4.45;;;;;;;;;;5054987;28;20470;-38
2022/05/12 00:41:52;;;;;;;5.95;4.28;;;;;;;;;;5054997;28;20368;-38
2022/05/12 00:44:18;;;;;;;8.10;3.78;;;;;;;;;;5036812;28;20387;-38
2022/05/12 00:46:44;;;;;;;7.10;4.18;;;;;;;;;;5054747;28;20360;-38
2022/05/12 00:49:13;;;;;;;13.35;4.38;;;;;;;;;;5054856;28;20048;-38
2022/05/12 00:51:54;;;;;;;8.30;4.20;;;;;;;;;;5054606;28;20029;-38
2022/05/12 00:54:28;;;;;;;6.15;4.32;;;;;;;;;;5054405;28;20024;-38
2022/05/12 00:56:53;;;;;;;7.85;3.72;;;;;;;;;;5054747;28;20029;-38
2022/05/12 00:59:28;;;;;;;8.60;4.40;;;;;;;;;;5054320;28;20047;-38
2022/05/12 01:01:53;;;;;;;7.88;4.10;;;;;;;;;;5054625;28;20036;-38
2022/05/12 01:04:20;;;;;;;5.35;3.60;;;;;;;;;;5054124;28;20049;-38
2022/05/12 01:06:46;;;;;;;13.18;4.95;;;;;;;;;;5036485;28;20438;-38
2022/05/12 01:09:11;;;;;;;8.25;4.22;;;;;;;;;;5054566;28;20029;-38
2022/05/12 01:11:37;;;;;;;5.15;4.00;;;;;;;;;;5054305;28;20033;-38
2022/05/12 01:14:04;;;;;;;7.50;3.95;;;;;;;;;;5054176;28;20020;-38
2022/05/12 01:16:34;;;;;;;6.80;3.47;;;;;;;;;;5054113;28;20476;-38
2022/05/12 01:19:00;;;;;;;7.18;4.20;;;;;;;;;;5054085;28;20036;-38
2022/05/12 01:21:25;;;;;;;5.55;3.47;;;;;;;;;;5054235;28;20029;-38
2022/05/12 01:23:51;;;;;;;4.90;4.10;;;;;;;;;;5053962;28;20036;-38
2022/05/12 01:26:16;;;;;;;9.43;3.88;;;;;;;;;;5053967;28;20116;-38
2022/05/12 01:28:42;;;;;;;7.93;4.38;;;;;;;;;;5054145;28;20025;-38
2022/05/12 01:31:07;;;;;;;5.93;4.53;;;;;;;;;;5053843;28;20468;-38
2022/05/12 01:33:33;;;;;;;11.20;4.32;;;;;;;;;;5053662;28;20017;-38
2022/05/12 01:35:59;;;;;;;6.78;3.85;;;;;;;;;;5054284;28;20510;-38
2022/05/12 01:38:24;;;;;;;10.88;3.97;;;;;;;;;;5053932;28;20021;-38
2022/05/12 01:40:50;;;;;;;6.15;4.50;;;;;;;;;;5053089;28;20032;-38
2022/05/12 01:43:16;;;;;;;9.75;4.65;;;;;;;;;;5053493;28;20033;-38
2022/05/12 01:45:42;;;;;;;12.10;5.03;;;;;;;;;;5053876;28;20035;-38
2022/05/12 01:48:09;;;;;;;6.13;4.00;;;;;;;;;;5053576;28;20037;-38
2022/05/12 01:50:36;;;;;;;6.80;3.03;;;;;;;;;;5053521;28;20033;-38
2022/05/12 01:53:03;;;;;;;10.05;4.28;;;;;;;;;;5053454;28;20044;-38
2022/05/12 01:55:28;;;;;;;11.52;5.10;;;;;;;;;;5053478;28;20383;-38
2022/05/12 01:57:55;;;;;;;8.35;4.53;;;;;;;;;;5053404;28;20096;-38
2022/05/12 02:00:22;;;;;;;5.97;4.07;;;;;;;;;;5053509;28;20116;-38
2022/05/12 02:02:49;;;;;;;5.38;4.35;;;;;;;;;;5035536;28;20090;-38
2022/05/12 02:05:14;;;;;;;13.90;4.63;;;;;;;;;;5053126;28;20068;-38
2022/05/12 02:07:41;;;;;;;10.70;4.47;;;;;;;;;;5053261;28;20068;-38
2022/05/12 02:10:08;;;;;;;9.13;4.50;;;;;;;;;;5053327;28;20025;-38
2022/05/12 02:12:33;;;;;;;7.90;5.53;;;;;;;;;;5053037;28;20376;-38
2022/05/12 02:14:59;;;;;;;13.80;4.70;;;;;;;;;;5051918;28;20036;-38
2022/05/12 02:17:24;;;;;;;7.80;4.53;;;;;;;;;;5053061;28;20021;-38
2022/05/12 02:19:49;;;;;;;8.15;4.45;;;;;;;;;;5035263;28;20052;-38
2022/05/12 02:22:15;;;;;;;14.98;5.35;;;;;;;;;;5052708;28;20068;-39
2022/05/12 02:24:40;;;;;;;8.90;5.00;;;;;;;;;;5052768;28;20025;-38
2022/05/12 02:27:06;;;;;;;12.07;4.95;;;;;;;;;;5051556;28;20047;-39
2022/05/12 02:29:31;;;;;;;7.50;4.88;;;;;;;;;;5052922;28;20383;-37
2022/05/12 02:31:56;;;;;;;9.23;3.92;;;;;;;;;;5052997;28;20392;-38
2022/05/12 02:34:22;;;;;;;8.77;4.20;;;;;;;;;;5052613;28;20574;-38
2022/05/12 02:36:59;;;;;;;19.23;5.50;;;;;;;;;;5034880;28;20391;-38
2022/05/12 02:39:28;;;;;;;8.93;4.40;;;;;;;;;;5052440;28;20033;-38
2022/05/12 02:41:54;;;;;;;8.48;5.20;;;;;;;;;;5052438;28;20028;-38
2022/05/12 02:44:19;;;;;;;7.93;4.75;;;;;;;;;;5052554;28;20455;-38
2022/05/12 02:46:44;;;;;;;11.07;4.40;;;;;;;;;;5052696;28;20017;-38
2022/05/12 02:49:10;;;;;;;9.05;5.07;;;;;;;;;;5052691;28;20035;-38
2022/05/12 02:51:35;;;;;;;6.45;4.25;;;;;;;;;;5051431;28;20016;-38
2022/05/12 02:54:01;;;;;;;7.80;4.88;;;;;;;;;;5052237;28;20032;-38
2022/05/12 02:56:26;;;;;;;13.65;5.22;;;;;;;;;;5052238;28;20025;-38
2022/05/12 02:58:52;;;;;;;7.13;5.60;;;;;;;;;;5052267;28;20483;-39
2022/05/12 03:01:17;;;;;;;11.23;5.00;;;;;;;;;;5034356;28;20063;-38
2022/05/12 03:03:42;;;;;;;8.50;4.85;;;;;;;;;;5052030;28;20114;-38
2022/05/12 03:06:08;;;;;;;7.68;4.90;;;;;;;;;;5052063;28;20068;-38
2022/05/12 03:08:33;;;;;;;5.47;4.70;;;;;;;;;;5051855;28;20087;-38
2022/05/12 03:10:59;;;;;;;12.90;5.25;;;;;;;;;;5052068;28;20024;-38
2022/05/12 03:13:24;;;;;;;7.32;5.50;;;;;;;;;;5051727;28;20421;-38
2022/05/12 03:15:49;;;;;;;7.15;4.95;;;;;;;;;;5052209;28;20017;-38
2022/05/12 03:18:15;;;;;;;6.15;4.70;;;;;;;;;;5052036;28;20072;-38
2022/05/12 03:20:41;;;;;;;7.47;4.78;;;;;;;;;;5051868;28;20128;-39
2022/05/12 03:23:07;;;;;;;9.20;4.97;;;;;;;;;;5051615;28;20167;-38
2022/05/12 03:25:32;;;;;;;8.68;4.78;;;;;;;;;;5051647;28;20025;-38
2022/05/12 03:27:59;;;;;;;7.03;5.35;;;;;;;;;;5051733;28;20052;-38
2022/05/12 03:30:25;;;;;;;10.45;5.25;;;;;;;;;;5051906;28;20100;-37
2022/05/12 03:32:51;;;;;;;7.07;5.40;;;;;;;;;;5051667;28;20439;-38
2022/05/12 03:35:16;;;;;;;8.75;5.35;;;;;;;;;;5051472;28;20021;-38
2022/05/12 03:37:42;;;;;;;9.20;6.43;;;;;;;;;;5051577;28;20511;-38
2022/05/12 03:40:09;;;;;;;8.23;4.65;;;;;;;;;;5051813;28;20043;-38
2022/05/12 03:42:34;;;;;;;10.00;5.38;;;;;;;;;;5051282;28;20029;-38
2022/05/12 03:45:00;;;;;;;7.40;4.75;;;;;;;;;;5051474;28;20393;-38
2022/05/12 03:47:27;;;;;;;8.00;4.70;;;;;;;;;;5033427;28;20033;-38
2022/05/12 03:49:57;;;;;;;12.00;4.70;;;;;;;;;;5051371;28;20430;-38
2022/05/12 03:52:23;;;;;;;5.72;4.40;;;;;;;;;;5051284;28;20032;-38
2022/05/12 03:54:49;;;;;;;8.27;4.82;;;;;;;;;;5051606;28;20024;-38
2022/05/12 03:57:15;;;;;;;8.10;4.60;;;;;;;;;;5051172;28;20391;-38
2022/05/12 03:59:41;;;;;;;8.05;5.68;;;;;;;;;;5051322;28;20020;-39
2022/05/12 04:02:07;;;;;;;8.07;4.82;;;;;;;;;;5050950;28;20039;-38
2022/05/12 04:04:33;;;;;;;7.30;4.15;;;;;;;;;;5050846;28;20053;-38
2022/05/12 04:06:59;;;;;;;5.82;4.55;;;;;;;;;;5051248;28;20063;-38
2022/05/12 04:09:24;;;;;;;12.75;5.20;;;;;;;;;;5051164;28;20448;-38
2022/05/12 04:11:50;;;;;;;25.35;5.30;;;;;;;;;;5051132;28;20028;-38
2022/05/12 04:14:15;;;;;;;8.88;5.07;;;;;;;;;;5051023;28;20021;-38
2022/05/12 04:16:40;;;;;;;5.65;4.35;;;;;;;;;;5051144;28;20036;-38
2022/05/12 04:19:06;;;;;;;9.13;4.93;;;;;;;;;;5051088;28;20017;-38
2022/05/12 04:21:34;;;;;;;12.07;5.90;;;;;;;;;;5051015;28;20219;-38
2022/05/12 04:24:01;;;;;;;6.70;4.63;;;;;;;;;;5050915;28;20093;-38
2022/05/12 04:26:26;;;;;;;10.88;5.28;;;;;;;;;;5050990;28;20614;-38
2022/05/12 04:28:52;;;;;;;9.18;4.78;;;;;;;;;;5051002;28;20115;-38
2022/05/12 04:31:17;;;;;;;13.48;4.93;;;;;;;;;;5051145;28;20025;-39
2022/05/12 04:36:27;;;;;;;10.75;4.75;;;;;;;;;;5050875;28;20033;-38
2022/05/12 04:38:53;;;;;;;8.48;4.38;;;;;;;;;;5032940;28;20025;-37
2022/05/12 04:41:18;;;;;;;5.75;4.15;;;;;;;;;;5050818;28;20108;-38
2022/05/12 04:43:43;;;;;;;11.27;5.00;;;;;;;;;;5050716;28;20039;-38
2022/05/12 04:46:09;;;;;;;7.53;4.45;;;;;;;;;;5050796;28;20061;-37
2022/05/12 04:48:36;;;;;;;5.22;4.28;;;;;;;;;;5051031;28;20017;-38
2022/05/12 04:51:03;;;;;;;7.32;4.78;;;;;;;;;;5050771;28;20029;-38
2022/05/12 04:53:29;;;;;;;6.80;4.97;;;;;;;;;;5050588;28;20103;-38
2022/05/12 04:55:54;;;;;;;8.05;4.35;;;;;;;;;;5051003;28;20104;-38
2022/05/12 04:58:20;;;;;;;11.50;6.40;;;;;;;;;;5050714;28;20444;-38
2022/05/12 05:00:45;;;;;;;9.50;4.72;;;;;;;;;;5032852;28;20075;-38
2022/05/12 05:03:11;;;;;;;8.07;4.95;;;;;;;;;;5050302;28;20053;-37
2022/05/12 05:05:38;;;;;;;5.15;4.47;;;;;;;;;;5032981;28;20063;-37
2022/05/12 05:08:08;;;;;;;5.13;4.00;;;;;;;;;;5032618;28;20037;-37
2022/05/12 05:10:35;;;;;;;6.18;5.07;;;;;;;;;;5050419;28;20029;-37
2022/05/12 05:13:01;;;;;;;9.48;4.53;;;;;;;;;;5050609;28;20471;-37
2022/05/12 05:15:26;;;;;;;47.53;9.18;;;;;;;;;;5052496;28;20041;-38
2022/05/12 05:17:52;;;;;;;9.10;4.97;;;;;;;;;;5036311;28;20591;-37
2022/05/12 05:20:20;;;;;;;4.88;4.22;;;;;;;;;;5054300;28;20391;-37
2022/05/12 05:22:46;;;;;;;6.25;5.03;;;;;;;;;;5054123;28;20147;-37
2022/05/12 05:25:12;;;;;;;9.43;4.28;;;;;;;;;;5054176;28;20033;-37
2022/05/12 05:27:39;;;;;;;10.18;6.35;;;;;;;;;;5053937;28;20025;-38
2022/05/12 05:30:13;;;;;;;5.80;4.25;;;;;;;;;;5053874;28;20037;-37
2022/05/12 05:32:39;;;;;;;9.77;4.72;;;;;;;;;;5053878;28;20383;-37
2022/05/12 05:35:07;;;;;;;11.80;4.50;;;;;;;;;;5053791;28;20403;-38
2022/05/12 05:37:36;;;;;;;7.80;4.38;;;;;;;;;;5053709;28;20403;-38
2022/05/12 05:40:05;;;;;;;8.82;5.43;;;;;;;;;;5053705;28;20024;-39
2022/05/12 05:42:35;;;;;;;11.52;4.65;;;;;;;;;;5053380;28;20561;-37
2022/05/12 05:45:10;;;;;;;6.78;4.32;;;;;;;;;;5035897;28;20052;-37
2022/05/12 05:47:41;;;;;;;6.57;4.78;;;;;;;;;;5053579;28;20036;-38
2022/05/12 05:50:10;;;;;;;5.70;4.47;;;;;;;;;;5053454;28;20072;-37
2022/05/12 05:55:22;;;;;;;8.27;4.32;;;;;;;;;;5053238;28;20033;-38
2022/05/12 05:57:47;;;;;;;8.13;4.63;;;;;;;;;;5053369;28;20088;-38
2022/05/12 06:00:15;;;;;;;11.25;4.78;;;;;;;;;;5053613;28;20136;-37
2022/05/12 06:02:41;;;;;;;14.15;6.35;;;;;;;;;;5053172;28;20044;-38
2022/05/12 06:05:07;;;;;;;16.02;5.68;;;;;;;;;;5052880;28;20053;-38
2022/05/12 06:07:36;;;;;;;11.77;5.32;;;;;;;;;;5053109;28;20548;-38
2022/05/12 06:10:06;;;;;;;7.68;5.30;;;;;;;;;;5053420;28;20035;-38
2022/05/12 06:12:33;;;;;;;10.18;5.22;;;;;;;;;;5052923;28;20056;-38
2022/05/12 06:14:59;;;;;;;10.07;4.82;;;;;;;;;;5053332;28;20036;-38
2022/05/12 06:17:26;;;;;;;7.65;4.45;;;;;;;;;;5053179;28;20032;-38
2022/05/12 06:19:52;;;;;;;8.10;4.93;;;;;;;;;;5052961;28;20017;-39
2022/05/12 06:22:21;;;;;;;40.15;7.10;;;;;;;;;;5052751;28;20031;-38
2022/05/12 06:24:47;;;;;;;9.02;4.93;;;;;;;;;;5052927;28;20075;-38
2022/05/12 06:27:14;;;;;;;7.03;5.00;;;;;;;;;;5052730;28;20645;-38
2022/05/12 06:29:41;;;;;;;9.90;4.72;;;;;;;;;;5052726;28;20017;-38
2022/05/12 06:32:08;;;;;;;9.13;4.82;;;;;;;;;;5052687;28;20025;-37
2022/05/12 06:34:34;;;;;;;14.15;4.88;;;;;;;;;;5052532;28;20378;-38
2022/05/12 06:37:00;;;;;;;7.70;4.28;;;;;;;;;;5034737;28;20510;-38
2022/05/12 06:39:26;;;;;;;10.70;4.00;;;;;;;;;;5052537;28;20049;-38
2022/05/12 06:41:52;;;;;;;8.65;6.25;;;;;;;;;;5052542;28;20024;-38
2022/05/12 06:44:39;;;;;;;9.70;4.75;;;;;;;;;;5052243;28;20025;-38
2022/05/12 06:47:11;;;;;;;9.07;4.47;;;;;;;;;;5052395;28;20211;-37
2022/05/12 06:49:37;;;;;;;10.35;4.40;;;;;;;;;;5052408;28;20112;-38
2022/05/12 06:52:05;;;;;;;5.00;4.03;;;;;;;;;;5052626;28;20124;-38
2022/05/12 06:54:32;;;;;;;8.23;4.53;;;;;;;;;;5052173;28;20032;-39
2022/05/12 06:57:00;;;;;;;6.43;4.45;;;;;;;;;;5052402;28;20035;-38
2022/05/12 06:59:26;;;;;;;8.57;5.00;;;;;;;;;;5052263;28;20032;-38
2022/05/12 07:01:52;;;;;;;5.55;4.88;;;;;;;;;;5052390;28;20025;-38
2022/05/12 07:04:18;;;;;;;8.25;4.57;;;;;;;;;;5051796;28;20522;-38
2022/05/12 07:06:47;;;;;;;9.45;4.68;;;;;;;;;;5052160;28;20515;-38
2022/05/12 07:09:14;;;;;;;6.63;4.47;;;;;;;;;;5052243;28;20033;-39
2022/05/12 07:11:39;;;;;;;7.20;3.78;;;;;;;;;;5031827;28;20044;-38
2022/05/12 07:14:05;;;;;;;7.38;4.80;;;;;;;;;;5051928;28;20029;-38
2022/05/12 07:16:31;;;;;;;9.30;4.72;;;;;;;;;;5051757;28;20025;-38
2022/05/12 07:18:57;;;;;;;8.73;4.63;;;;;;;;;;5052082;28;20396;-38
2022/05/12 07:26:53;;;;;;;12.20;5.25;;;;;;;;;;5051833;28;20025;-38
2022/05/12 07:29:20;;;;;;;10.70;4.55;;;;;;;;;;5051487;28;20090;-38
2022/05/12 07:31:49;;;;;;;17.92;4.72;;;;;;;;;;5051628;28;20029;-38
2022/05/12 07:34:15;;;;;;;7.13;5.05;;;;;;;;;;5033792;28;20017;-38
2022/05/12 07:36:46;;;;;;;10.75;4.85;;;;;;;;;;5051517;28;20059;-38
2022/05/12 07:39:12;;;;;;;10.00;5.07;;;;;;;;;;5051153;28;20440;-38
2022/05/12 07:41:41;;;;;;;9.48;4.90;;;;;;;;;;5051635;28;20061;-38
2022/05/12 07:44:13;;;;;;;18.38;5.07;;;;;;;;;;5033463;28;20044;-38
2022/05/12 07:46:42;;;;;;;11.60;4.88;;;;;;;;;;5051469;28;20464;-38
2022/05/12 07:49:08;;;;;;;8.25;4.25;;;;;;;;;;5050060;28;20025;-38
2022/05/12 07:51:33;;;;;;;43.20;6.22;;;;;;;;;;5051115;28;20029;-39
2022/05/12 07:53:59;;;;;;;19.67;5.18;;;;;;;;;;5033509;28;20043;-38
2022/05/12 07:56:26;;;;;;;7.53;5.22;;;;;;;;;;5051153;28;20143;-38
2022/05/12 07:58:52;;;;;;;8.30;5.30;;;;;;;;;;5051282;28;20032;-38
2022/05/12 08:01:19;;;;;;;10.18;5.05;;;;;;;;;;5051113;28;20025;-38
2022/05/12 08:03:46;;;;;;;11.20;5.25;;;;;;;;;;5050412;28;20430;-38
2022/05/12 08:06:16;;;;;;;6.97;4.68;;;;;;;;;;5051210;28;20036;-38
2022/05/12 08:08:44;;;;;;;7.50;5.28;;;;;;;;;;5051129;28;20037;-38
2022/05/12 08:11:10;;;;;;;23.67;5.43;;;;;;;;;;5051228;28;20033;-38
2022/05/12 08:13:37;;;;;;;7.90;4.15;;;;;;;;;;5033249;28;20515;-38
2022/05/12 08:16:04;;;;;;;10.10;4.22;;;;;;;;;;5051411;28;20765;-39
2022/05/12 08:18:32;;;;;;;8.77;4.72;;;;;;;;;;5051042;28;20013;-38
2022/05/12 08:20:57;;;;;;;16.35;4.65;;;;;;;;;;5033183;28;20578;-38
2022/05/12 08:23:23;;;;;;;27.45;5.18;;;;;;;;;;5051100;28;20119;-38
2022/05/12 08:25:48;;;;;;;8.05;4.65;;;;;;;;;;5051370;28;20055;-38
2022/05/12 08:28:15;;;;;;;6.20;3.95;;;;;;;;;;5051239;28;20016;-38
2022/05/12 08:30:42;;;;;;;8.38;4.35;;;;;;;;;;5050914;28;20104;-38
2022/05/12 08:33:07;;;;;;;8.35;4.20;;;;;;;;;;5050924;28;20112;-39
2022/05/12 08:35:33;;;;;;;5.88;3.92;;;;;;;;;;5051171;28;20115;-38
2022/05/12 08:37:58;;;;;;;8.40;3.53;;;;;;;;;;5033121;28;20025;-38
2022/05/12 08:40:42;;;;;;;8.82;4.07;;;;;;;;;;5051072;28;20029;-38
2022/05/12 08:43:13;;;;;;;34.10;6.45;;;;;;;;;;5050723;28;20558;-38
2022/05/12 08:45:39;;;;;;;9.02;5.20;;;;;;;;;;5050788;28;20043;-38
2022/05/12 08:48:05;;;;;;;11.88;5.75;;;;;;;;;;5050818;28;20104;-39
2022/05/12 08:50:32;;;;;;;7.78;4.72;;;;;;;;;;5052839;28;20071;-39
2022/05/12 08:52:58;;;;;;;8.40;5.30;;;;;;;;;;5036721;28;20021;-38
2022/05/12 08:55:25;;;;;;;13.98;4.30;;;;;;;;;;5054479;28;20047;-37
2022/05/12 08:57:55;;;;;;;10.60;4.93;;;;;;;;;;5054610;28;20021;-39
2022/05/12 09:00:22;;;;;;;6.63;4.43;;;;;;;;;;5054679;28;20048;-38
2022/05/12 09:02:47;;;;;;;9.05;4.80;;;;;;;;;;5054603;28;20738;-38
2022/05/12 09:05:15;;;;;;;9.77;4.32;;;;;;;;;;5054266;28;20061;-39
2022/05/12 09:07:45;;;;;;;9.13;5.45;;;;;;;;;;5054308;28;20047;-38
2022/05/12 09:10:13;;;;;;;7.32;5.18;;;;;;;;;;5054567;28;20688;-38
2022/05/12 09:12:45;;;;;;;13.40;5.10;;;;;;;;;;5054233;28;20102;-38
2022/05/12 09:15:13;;;;;;;8.48;5.10;;;;;;;;;;5054536;28;20029;-39
2022/05/12 09:17:42;;;;;;;5.90;4.35;;;;;;;;;;5054230;28;20028;-38
2022/05/12 09:20:10;;;;;;;11.30;4.82;;;;;;;;;;5054163;28;20581;-38
2022/05/12 09:22:36;;;;;;;8.68;3.50;;;;;;;;;;5054133;28;20517;-38
2022/05/12 09:25:02;;;;;;;10.70;4.65;;;;;;;;;;5054003;28;20029;-38
2022/05/12 09:27:29;;;;;;;6.28;4.82;;;;;;;;;;5054130;28;20023;-38
2022/05/12 09:29:55;;;;;;;6.90;4.35;;;;;;;;;;5054242;28;20133;-38
2022/05/12 09:32:23;;;;;;;9.35;4.78;;;;;;;;;;5053761;28;20479;-38
2022/05/12 09:35:04;;;;;;;10.40;5.70;;;;;;;;;;5053908;28;20116;-38
2022/05/12 09:37:30;;;;;;;13.70;4.85;;;;;;;;;;5053953;28;20102;-38
2022/05/12 09:39:57;;;;;;;42.08;6.22;;;;;;;;;;5054022;28;20025;-38
2022/05/12 09:42:28;;;;;;;10.63;4.90;;;;;;;;;;5053566;28;20570;-39
2022/05/12 09:45:02;;;;;;;12.88;4.60;;;;;;;;;;5035709;28;20025;-38
2022/05/12 09:47:29;;;;;;;11.82;5.10;;;;;;;;;;5053556;28;20384;-38
2022/05/12 09:50:25;;;;;;;7.40;4.38;;;;;;;;;;5053563;28;20032;-38
2022/05/12 09:52:53;;;;;;;8.38;5.25;;;;;;;;;;5036803;28;20403;-38
2022/05/12 09:55:21;;;;;;;6.20;4.78;;;;;;;;;;5053383;28;20404;-38
2022/05/12 09:57:49;;;;;;;9.18;4.53;;;;;;;;;;5053493;28;20489;-38
2022/05/12 10:00:31;;;;;;;9.40;4.93;;;;;;;;;;5052921;28;20033;-39
2022/05/12 10:08:29;;;;;;;11.95;4.72;;;;;;;;;;5013740;28;20514;-39
2022/05/12 10:10:57;;;;;;;6.60;4.35;;;;;;;;;;5013483;28;20029;-39
2022/05/12 10:13:40;;;;;;;12.75;5.05;;;;;;;;;;5013236;28;20034;-38
2022/05/12 10:16:10;;;;;;;11.30;5.03;;;;;;;;;;5013467;28;20122;-38
2022/05/12 10:19:05;;;;;;;9.73;5.35;;;;;;;;;;5013358;28;20040;-38
2022/05/12 10:21:34;;;;;;;7.43;4.75;;;;;;;;;;5004354;28;20037;-38
2022/05/12 10:24:16;;;;;;;12.00;5.30;;;;;;;;;;5013258;28;20030;-38
2022/05/12 10:26:41;;;;;;;6.72;4.55;;;;;;;;;;5013185;28;20073;-38
2022/05/12 10:29:09;;;;;;;7.60;4.80;;;;;;;;;;5013155;28;20026;-38
2022/05/12 10:31:54;;;;;;;8.20;4.60;;;;;;;;;;5013341;28;20022;-38
2022/05/12 10:34:38;;;;;;;26.40;5.63;;;;;;;;;;5013396;28;20408;-38
2022/05/12 10:37:03;;;;;;;5.95;4.25;;;;;;;;;;5013126;28;20034;-39
2022/05/12 10:39:32;;;;;;;8.40;4.22;;;;;;;;;;5012909;28;20037;-38
2022/05/12 10:42:13;;;;;;;9.68;5.80;;;;;;;;;;5013086;28;20038;-38
2022/05/12 10:44:41;;;;;;;11.48;5.78;;;;;;;;;;5012867;28;20076;-38
2022/05/12 10:47:07;;;;;;;6.18;5.38;;;;;;;;;;5012715;28;20014;-38
2022/05/12 10:49:52;;;;;;;12.73;5.35;;;;;;;;;;5012669;28;20029;-38
2022/05/12 10:52:24;;;;;;;7.18;4.72;;;;;;;;;;5012962;28;20081;-38
2022/05/12 10:54:59;;;;;;;10.95;4.97;;;;;;;;;;5012552;28;20030;-38
2022/05/12 10:57:24;;;;;;;11.30;4.97;;;;;;;;;;5012553;28;20038;-38
2022/05/12 10:59:59;;;;;;;11.25;4.50;;;;;;;;;;5012595;28;20080;-38
2022/05/12 11:02:37;;;;;;;5.93;4.93;;;;;;;;;;5012333;28;20033;-38
2022/05/12 11:05:17;;;;;;;8.23;5.00;;;;;;;;;;5045110;28;20064;-38
2022/05/12 11:07:49;;;;;;;8.77;4.82;;;;;;;;;;5052347;28;20033;-38
2022/05/12 11:10:17;;;;;;;8.40;4.38;;;;;;;;;;5052080;28;20029;-38
2022/05/12 11:12:45;;;;;;;12.98;4.80;;;;;;;;;;5051133;28;20025;-38
2022/05/12 11:15:14;;;;;;;4.93;4.05;;;;;;;;;;5034230;28;20460;-38
2022/05/12 11:17:59;;;;;;;6.32;4.53;;;;;;;;;;5052104;28;20353;-38
2022/05/12 11:20:36;;;;;;;7.50;5.15;;;;;;;;;;5051875;28;20032;-38
2022/05/12 11:23:20;;;;;;;9.90;4.30;;;;;;;;;;5051796;28;20033;-38
2022/05/12 11:26:18;;;;;;;9.30;4.95;;;;;;;;;;5051888;28;20029;-38
2022/05/12 11:31:27;;;;;;;10.45;5.82;;;;;;;;;;5051597;28;20024;-38
2022/05/12 11:33:59;;;;;;;8.77;4.88;;;;;;;;;;5051639;28;20104;-39
2022/05/12 11:36:43;;;;;;;8.30;5.10;;;;;;;;;;5051622;28;20037;-39
2022/05/12 11:39:27;;;;;;;6.03;4.50;;;;;;;;;;5033809;28;20029;-38
2022/05/12 11:42:11;;;;;;;4.72;3.72;;;;;;;;;;5051532;28;20028;-38
2022/05/12 11:44:48;;;;;;;9.63;4.50;;;;;;;;;;5051552;28;20053;-38
2022/05/12 11:47:23;;;;;;;7.05;4.80;;;;;;;;;;5051475;28;20033;-38
2022/05/12 11:50:07;;;;;;;8.70;4.05;;;;;;;;;;5033746;28;20083;-38
2022/05/12 11:52:53;;;;;;;8.75;4.47;;;;;;;;;;5051224;28;20033;-38
2022/05/12 11:55:22;;;;;;;9.63;5.95;;;;;;;;;;5051316;28;20047;-38
2022/05/12 11:58:05;;;;;;;5.45;3.85;;;;;;;;;;5033451;28;20025;-38
2022/05/12 12:00:33;;;;;;;13.80;5.35;;;;;;;;;;5033318;28;20029;-38
2022/05/12 12:03:19;;;;;;;6.00;4.32;;;;;;;;;;5033460;28;20044;-38
2022/05/12 12:05:45;;;;;;;9.32;5.22;;;;;;;;;;5051053;28;20044;-38
2022/05/12 12:08:10;;;;;;;6.70;5.15;;;;;;;;;;5051401;28;20041;-38
2022/05/12 12:10:38;;;;;;;3.75;3.03;;;;;;;;;;5051388;28;20538;-38
2022/05/12 12:13:26;;;;;;;6.07;4.35;;;;;;;;;;5051400;28;20021;-38
2022/05/12 12:15:55;;;;;;;5.97;4.50;;;;;;;;;;5051046;28;20114;-38
2022/05/12 12:18:22;;;;;;;12.57;5.47;;;;;;;;;;5051367;28;20016;-38
2022/05/12 12:20:50;;;;;;;10.27;5.13;;;;;;;;;;5051035;28;20028;-39
2022/05/12 12:23:34;;;;;;;5.03;3.90;;;;;;;;;;5051090;28;20040;-39
2022/05/12 12:26:01;;;;;;;5.30;4.25;;;;;;;;;;5055500;28;20036;-38
2022/05/12 12:28:39;;;;;;;7.05;4.80;;;;;;;;;;5054831;28;20085;-38
2022/05/12 12:31:07;;;;;;;9.73;5.72;;;;;;;;;;5055035;28;20045;-38
2022/05/12 12:33:34;;;;;;;7.22;4.63;;;;;;;;;;5055071;28;20059;-38
2022/05/12 12:36:05;;;;;;;7.25;5.20;;;;;;;;;;5054969;28;20025;-39
2022/05/12 12:38:46;;;;;;;7.20;4.65;;;;;;;;;;5054952;28;20029;-39
2022/05/12 12:41:12;;;;;;;6.07;4.45;;;;;;;;;;5054847;28;20399;-38
2022/05/12 12:43:40;;;;;;;9.20;4.68;;;;;;;;;;5036776;28;20037;-38
2022/05/12 12:46:16;;;;;;;10.02;4.25;;;;;;;;;;5054868;28;20036;-38
2022/05/12 12:48:48;;;;;;;12.10;4.80;;;;;;;;;;5054970;28;20108;-38
2022/05/12 12:51:26;;;;;;;5.85;4.22;;;;;;;;;;5054638;28;20032;-38
2022/05/12 12:56:35;;;;;;;7.78;4.45;;;;;;;;;;5054505;28;20486;-39
2022/05/12 12:59:04;;;;;;;2.80;2.22;;;;;;;;;;5054579;28;20025;-38
2022/05/12 13:01:49;;;;;;;9.60;4.78;;;;;;;;;;5054375;28;20422;-38
2022/05/12 13:04:16;;;;;;;9.40;4.93;;;;;;;;;;5054150;28;20053;-38
2022/05/12 13:06:47;;;;;;;8.20;5.25;;;;;;;;;;5054642;28;20041;-38
2022/05/12 13:09:13;;;;;;;12.23;3.33;;;;;;;;;;5054405;28;20021;-38
2022/05/12 13:11:40;;;;;;;5.72;4.60;;;;;;;;;;5054172;28;20021;-38
2022/05/12 13:14:08;;;;;;;8.15;4.03;;;;;;;;;;5054422;28;20682;-38
2022/05/12 13:16:36;;;;;;;6.93;4.82;;;;;;;;;;5054431;28;20028;-39
2022/05/12 13:19:03;;;;;;;6.32;4.43;;;;;;;;;;5054096;28;20029;-38
2022/05/12 13:21:36;;;;;;;6.28;4.57;;;;;;;;;;5054003;28;20489;-38
2022/05/12 13:24:04;;;;;;;6.40;4.97;;;;;;;;;;5054035;28;20037;-38
2022/05/12 13:26:31;;;;;;;7.88;5.63;;;;;;;;;;5054215;28;20029;-38
2022/05/12 13:28:58;;;;;;;6.28;4.80;;;;;;;;;;5054026;28;20068;-38
2022/05/12 13:31:25;;;;;;;8.18;3.95;;;;;;;;;;5053922;28;20104;-38
2022/05/12 13:34:03;;;;;;;5.70;4.57;;;;;;;;;;5054122;28;20044;-38
2022/05/12 13:36:41;;;;;;;10.23;5.15;;;;;;;;;;5053197;28;20029;-39
2022/05/12 13:39:07;;;;;;;5.88;4.88;;;;;;;;;;5053814;28;20036;-39
2022/05/12 13:41:38;;;;;;;7.88;4.15;;;;;;;;;;5053572;28;20676;-39
2022/05/12 13:44:04;;;;;;;6.18;4.78;;;;;;;;;;5053938;28;20044;-38
2022/05/12 13:46:30;;;;;;;6.30;4.57;;;;;;;;;;5035577;28;20017;-38
2022/05/12 13:49:00;;;;;;;8.27;4.90;;;;;;;;;;5053643;28;20119;-38
2022/05/12 13:51:45;;;;;;;7.53;4.47;;;;;;;;;;5053398;28;20021;-38
2022/05/12 13:54:25;;;;;;;6.60;4.57;;;;;;;;;;5053468;28;20050;-38
2022/05/12 13:56:52;;;;;;;8.68;4.82;;;;;;;;;;5053507;28;20483;-38
2022/05/12 13:59:26;;;;;;;10.95;5.93;;;;;;;;;;5053460;28;20021;-38
2022/05/12 14:01:52;;;;;;;8.35;5.88;;;;;;;;;;5053322;28;20036;-40
2022/05/12 14:04:22;;;;;;;10.30;5.10;;;;;;;;;;5052978;28;20114;-38
2022/05/12 14:06:58;;;;;;;7.75;5.05;;;;;;;;;;5053253;28;20498;-38
2022/05/12 14:09:25;;;;;;;6.20;4.65;;;;;;;;;;5053351;28;20033;-38
2022/05/12 14:11:56;;;;;;;9.07;5.15;;;;;;;;;;5053151;28;20398;-38
2022/05/12 14:20:03;;;;;;;9.52;5.75;;;;;;;;;;5053195;28;20044;-39
2022/05/12 14:22:28;;;;;;;11.55;5.10;;;;;;;;;;5052739;28;20040;-38
2022/05/12 14:24:55;;;;;;;10.73;5.78;;;;;;;;;;5053041;28;20017;-39
2022/05/12 14:27:20;;;;;;;5.75;4.30;;;;;;;;;;5052868;28;20029;-38
2022/05/12 14:29:46;;;;;;;7.30;4.63;;;;;;;;;;5052673;28;20017;-39
2022/05/12 14:32:13;;;;;;;12.23;5.15;;;;;;;;;;5052832;28;20460;-38
2022/05/12 14:34:40;;;;;;;8.75;4.53;;;;;;;;;;5052735;28;20009;-38
2022/05/12 14:37:06;;;;;;;7.60;5.20;;;;;;;;;;5052650;28;20048;-38
2022/05/12 14:39:33;;;;;;;25.02;6.43;;;;;;;;;;5052638;28;20021;-36
2022/05/12 14:42:00;;;;;;;7.28;5.30;;;;;;;;;;5052845;28;20039;-36
2022/05/12 14:44:26;;;;;;;8.63;5.50;;;;;;;;;;5052436;28;20029;-36
2022/05/12 14:46:53;;;;;;;11.50;4.90;;;;;;;;;;5035000;28;20036;-36
2022/05/12 14:49:21;;;;;;;8.57;5.75;;;;;;;;;;5034646;28;20021;-36
2022/05/12 14:51:47;;;;;;;6.40;4.90;;;;;;;;;;5052226;28;20037;-35
2022/05/12 14:54:13;;;;;;;6.90;5.40;;;;;;;;;;5052494;28;20024;-36
2022/05/12 14:56:38;;;;;;;10.65;4.70;;;;;;;;;;5052514;28;20033;-36
2022/05/12 14:59:05;;;;;;;8.05;5.30;;;;;;;;;;5052317;28;20020;-36
2022/05/12 15:01:33;;;;;;;6.32;4.88;;;;;;;;;;5052155;28;20549;-35
2022/05/12 15:03:59;;;;;;;8.65;5.78;;;;;;;;;;5052153;28;20075;-36
2022/05/12 15:06:30;;;;;;;11.20;5.38;;;;;;;;;;5052103;28;20434;-36
2022/05/12 15:08:57;;;;;;;7.75;5.40;;;;;;;;;;5052173;28;20033;-36
2022/05/12 15:11:22;;;;;;;7.22;5.47;;;;;;;;;;5052050;28;20024;-37
2022/05/12 15:13:48;;;;;;;7.80;4.05;;;;;;;;;;5052218;28;20418;-36